createdAt,value
2018-11-12T00:01:16.193Z,8.30
2018-11-12T00:03:45.900Z,8.40
2018-11-12T00:06:15.574Z,8.40
2018-11-12T00:08:45.188Z,8.40
2018-11-12T00:11:14.718Z,8.40
2018-11-12T00:13:44.327Z,8.30
2018-11-12T00:16:13.877Z,8.30
2018-11-12T00:18:43.822Z,8.40
2018-11-12T00:21:13.513Z,8.40
2018-11-12T00:23:43.078Z,8.30
2018-11-12T00:26:12.904Z,8.30
2018-11-12T00:28:42.723Z,8.20
2018-11-12T00:31:12.457Z,8.10
2018-11-12T00:33:42.148Z,8.00
2018-11-12T00:36:11.860Z,7.90
2018-11-12T00:38:41.632Z,7.80
2018-11-12T00:41:11.421Z,7.50
2018-11-12T00:43:41.234Z,7.20
2018-11-12T00:46:11.128Z,7.00
2018-11-12T00:48:41.324Z,6.90
2018-11-12T00:51:10.985Z,6.80
2018-11-12T00:53:40.493Z,6.80
2018-11-12T00:56:10.213Z,6.70
2018-11-12T00:58:40.425Z,6.80
2018-11-12T01:01:10.748Z,6.70
2018-11-12T01:03:40.680Z,6.60
2018-11-12T01:06:10.182Z,6.80
2018-11-12T01:08:39.871Z,6.80
2018-11-12T01:11:10.513Z,6.80
2018-11-12T01:13:39.984Z,7.00
2018-11-12T01:16:10.180Z,7.10
2018-11-12T01:18:39.812Z,7.20
2018-11-12T01:21:09.377Z,7.30
2018-11-12T01:23:38.949Z,7.30
2018-11-12T01:26:08.530Z,7.20
2018-11-12T01:28:38.089Z,7.10
2018-11-12T01:31:07.941Z,7.00
2018-11-12T01:33:38.140Z,6.80
2018-11-12T01:36:07.803Z,6.80
2018-11-12T01:38:37.306Z,6.60
2018-11-12T01:41:07.491Z,6.50
2018-11-12T01:43:37.052Z,6.40
2018-11-12T01:46:06.632Z,6.20
2018-11-12T01:48:36.319Z,6.10
2018-11-12T01:51:06.164Z,6.00
2018-11-12T01:53:36.042Z,5.80
2018-11-12T01:56:06.127Z,5.70
2018-11-12T01:58:36.054Z,5.60
2018-11-12T02:01:05.523Z,5.60
2018-11-12T02:03:35.150Z,5.50
2018-11-12T02:06:04.717Z,5.60
2018-11-12T02:08:34.196Z,5.60
2018-11-12T02:11:04.617Z,5.60
2018-11-12T02:13:34.234Z,5.60
2018-11-12T02:16:03.885Z,5.60
2018-11-12T02:18:33.382Z,5.60
2018-11-12T02:21:03.655Z,5.60
2018-11-12T02:23:33.208Z,5.60
2018-11-12T02:26:02.915Z,5.60
2018-11-12T02:28:32.447Z,5.70
2018-11-12T02:31:02.139Z,5.70
2018-11-12T02:33:31.898Z,5.80
2018-11-12T02:36:03.027Z,5.80
2018-11-12T02:38:32.892Z,5.80
2018-11-12T02:41:02.571Z,5.70
2018-11-12T02:43:32.073Z,5.60
2018-11-12T02:46:01.669Z,5.50
2018-11-12T02:48:31.493Z,5.70
2018-11-12T02:51:01.078Z,5.70
2018-11-12T02:53:30.723Z,5.70
2018-11-12T02:56:00.349Z,5.70
2018-11-12T02:58:30.167Z,5.70
2018-11-12T03:00:59.853Z,5.70
2018-11-12T03:03:29.445Z,5.60
2018-11-12T03:05:59.144Z,5.50
2018-11-12T03:08:28.553Z,5.40
2018-11-12T03:10:58.228Z,5.40
2018-11-12T03:13:27.909Z,5.40
2018-11-12T03:15:57.574Z,5.30
2018-11-12T03:18:27.242Z,5.20
2018-11-12T03:21:07.096Z,5.00
2018-11-12T03:23:37.980Z,4.80
2018-11-12T03:26:07.585Z,4.60
2018-11-12T03:28:37.255Z,4.40
2018-11-12T03:31:06.738Z,4.50
2018-11-12T03:33:36.313Z,4.60
2018-11-12T03:36:05.727Z,4.80
2018-11-12T03:38:35.824Z,4.80
2018-11-12T03:41:05.232Z,4.70
2018-11-12T03:43:34.554Z,4.60
2018-11-12T03:46:04.368Z,4.50
2018-11-12T03:51:19.992Z,4.70
2018-11-12T03:53:49.851Z,4.70
2018-11-12T03:56:19.487Z,4.80
2018-11-12T03:59:02.013Z,5.00
2018-11-12T04:01:47.006Z,5.00
2018-11-12T04:04:17.844Z,5.00
2018-11-12T04:06:47.478Z,4.80
2018-11-12T04:09:16.985Z,4.80
2018-11-12T04:11:46.641Z,4.70
2018-11-12T04:14:16.341Z,4.80
2018-11-12T04:16:46.253Z,5.00
2018-11-12T04:19:15.886Z,5.10
2018-11-12T04:21:45.486Z,5.10
2018-11-12T04:24:15.081Z,5.10
2018-11-12T04:26:44.535Z,5.10
2018-11-12T04:29:14.408Z,5.10
2018-11-12T04:31:43.462Z,5.00
2018-11-12T04:34:13.051Z,5.00
2018-11-12T04:36:42.580Z,5.00
2018-11-12T04:39:14.209Z,5.00
2018-11-12T04:41:44.008Z,4.90
2018-11-12T04:44:13.707Z,4.90
2018-11-12T04:46:43.347Z,4.90
2018-11-12T04:49:12.942Z,4.80
2018-11-12T04:51:42.779Z,4.80
2018-11-12T04:54:12.120Z,4.80
2018-11-12T04:56:41.850Z,4.80
2018-11-12T05:01:54.422Z,4.70
2018-11-12T05:04:24.162Z,4.50
2018-11-12T05:06:53.784Z,4.40
2018-11-12T05:09:23.372Z,4.20
2018-11-12T05:11:52.887Z,4.20
2018-11-12T05:14:22.452Z,4.10
2018-11-12T05:16:52.201Z,4.10
2018-11-12T05:21:51.723Z,3.90
2018-11-12T05:27:10.059Z,4.40
2018-11-12T05:29:39.891Z,4.60
2018-11-12T05:32:09.607Z,4.60
2018-11-12T05:34:39.896Z,4.50
2018-11-12T05:37:09.456Z,4.40
2018-11-12T05:39:47.435Z,4.40
2018-11-12T05:42:17.086Z,4.50
2018-11-12T05:44:47.813Z,4.60
2018-11-12T05:47:17.780Z,4.80
2018-11-12T05:49:47.476Z,4.80
2018-11-12T05:52:17.516Z,4.70
2018-11-12T05:54:47.097Z,4.70
2018-11-12T05:57:16.785Z,4.70
2018-11-12T05:59:46.298Z,4.80
2018-11-12T06:02:15.995Z,4.60
2018-11-12T06:04:47.531Z,4.60
2018-11-12T06:07:30.058Z,4.80
2018-11-12T06:09:59.854Z,4.80
2018-11-12T06:12:29.768Z,5.00
2018-11-12T06:15:12.079Z,5.10
2018-11-12T06:20:33.359Z,4.80
2018-11-12T06:23:03.082Z,4.60
2018-11-12T06:25:35.345Z,4.70
2018-11-12T06:28:05.035Z,4.70
2018-11-12T06:30:37.240Z,4.70
2018-11-12T06:33:07.218Z,4.70
2018-11-12T06:35:36.924Z,4.70
2018-11-12T06:38:06.483Z,4.70
2018-11-12T06:40:35.930Z,4.70
2018-11-12T06:43:05.686Z,5.00
2018-11-12T06:45:35.215Z,4.90
2018-11-12T06:48:04.665Z,4.90
2018-11-12T06:50:34.712Z,4.70
2018-11-12T06:53:04.560Z,4.60
2018-11-12T06:55:34.540Z,4.60
2018-11-12T06:58:03.965Z,4.60
2018-11-12T07:00:34.610Z,4.60
2018-11-12T07:03:04.187Z,4.70
2018-11-12T07:05:34.221Z,4.90
2018-11-12T07:08:03.965Z,5.00
2018-11-12T07:10:33.622Z,5.10
2018-11-12T07:13:04.001Z,5.10
2018-11-12T07:15:33.858Z,5.40
2018-11-12T07:18:03.272Z,6.30
2018-11-12T07:20:32.729Z,7.10
2018-11-12T07:23:03.449Z,7.80
2018-11-12T07:25:33.019Z,8.40
2018-11-12T07:28:02.630Z,8.80
2018-11-12T07:30:32.286Z,9.20
2018-11-12T07:33:01.902Z,9.70
2018-11-12T07:35:31.481Z,10.00
2018-11-12T07:38:01.515Z,10.50
2018-11-12T07:40:31.038Z,11.20
2018-11-12T07:43:00.680Z,11.80
2018-11-12T07:45:30.445Z,12.20
2018-11-12T07:48:00.406Z,12.60
2018-11-12T07:50:31.202Z,13.00
2018-11-12T07:53:00.667Z,13.20
2018-11-12T07:55:30.836Z,13.30
2018-11-12T07:58:00.651Z,13.30
2018-11-12T08:00:31.716Z,13.30
2018-11-12T08:03:05.880Z,13.20
2018-11-12T08:05:35.436Z,13.40
2018-11-12T08:08:04.763Z,14.00
2018-11-12T08:10:34.425Z,14.00
2018-11-12T08:13:04.281Z,13.90
2018-11-12T08:15:33.900Z,13.60
2018-11-12T08:18:03.578Z,13.40
2018-11-12T08:20:33.322Z,13.00
2018-11-12T08:23:02.860Z,13.10
2018-11-12T08:25:32.900Z,13.50
2018-11-12T08:28:02.536Z,13.40
2018-11-12T08:30:32.434Z,13.60
2018-11-12T08:33:02.463Z,14.10
2018-11-12T08:35:32.129Z,13.90
2018-11-12T08:38:01.763Z,13.10
2018-11-12T08:40:31.614Z,12.70
2018-11-12T08:43:01.284Z,12.70
2018-11-12T08:45:32.035Z,13.20
2018-11-12T08:48:02.468Z,13.70
2018-11-12T08:50:32.304Z,14.00
2018-11-12T08:53:02.564Z,13.80
2018-11-12T08:55:32.385Z,13.50
2018-11-12T08:58:03.385Z,13.20
2018-11-12T09:00:33.178Z,13.30
2018-11-12T09:03:03.841Z,13.30
2018-11-12T09:05:33.606Z,13.30
2018-11-12T09:08:03.776Z,13.60
2018-11-12T09:10:34.607Z,13.60
2018-11-12T09:13:04.041Z,13.70
2018-11-12T09:15:33.900Z,14.20
2018-11-12T09:18:03.871Z,14.60
2018-11-12T09:20:33.460Z,14.10
2018-11-12T09:23:02.964Z,14.10
2018-11-12T09:25:32.679Z,14.50
2018-11-12T09:28:02.438Z,14.70
2018-11-12T09:30:32.065Z,15.10
2018-11-12T09:33:01.940Z,15.30
2018-11-12T09:35:33.247Z,15.20
2018-11-12T09:38:03.697Z,15.40
2018-11-12T09:40:35.487Z,15.70
2018-11-12T09:43:05.366Z,15.30
2018-11-12T09:45:35.053Z,15.50
2018-11-12T09:48:05.416Z,15.90
2018-11-12T09:50:35.508Z,16.20
2018-11-12T09:53:04.905Z,16.60
2018-11-12T09:55:34.561Z,16.90
2018-11-12T09:58:05.583Z,17.10
2018-11-12T10:00:35.461Z,17.40
2018-11-12T10:03:06.063Z,17.20
2018-11-12T10:05:36.274Z,17.00
2018-11-12T10:08:09.151Z,16.70
2018-11-12T10:10:41.620Z,16.40
2018-11-12T10:13:12.923Z,16.50
2018-11-12T10:15:43.519Z,16.60
2018-11-12T10:20:40.427Z,16.40
2018-11-12T10:23:10.139Z,16.40
2018-11-12T10:25:39.828Z,16.30
2018-11-12T10:28:09.700Z,16.40
2018-11-12T10:30:39.298Z,16.90
2018-11-12T10:33:08.836Z,17.70
2018-11-12T10:35:38.670Z,17.80
2018-11-12T10:38:09.016Z,18.30
2018-11-12T10:40:38.714Z,18.20
2018-11-12T10:43:08.688Z,18.40
2018-11-12T10:45:38.276Z,18.60
2018-11-12T10:48:08.421Z,19.30
2018-11-12T10:50:37.945Z,20.00
2018-11-12T10:53:07.603Z,19.70
2018-11-12T10:55:37.349Z,19.30
2018-11-12T10:58:08.543Z,17.90
2018-11-12T11:00:43.208Z,17.70
2018-11-12T11:03:18.638Z,17.90
2018-11-12T11:05:53.078Z,17.70
2018-11-12T11:08:24.074Z,17.40
2018-11-12T11:10:53.749Z,17.50
2018-11-12T11:13:23.522Z,17.60
2018-11-12T11:15:53.102Z,17.80
2018-11-12T11:21:28.643Z,18.80
2018-11-12T11:23:58.633Z,19.00
2018-11-12T11:26:28.251Z,18.50
2018-11-12T11:28:57.874Z,18.50
2018-11-12T11:31:27.531Z,18.90
2018-11-12T11:33:57.209Z,19.50
2018-11-12T11:36:26.879Z,19.70
2018-11-12T11:38:56.732Z,19.30
2018-11-12T11:41:26.306Z,18.80
2018-11-12T11:43:56.185Z,18.00
2018-11-12T11:46:26.731Z,18.00
2018-11-12T11:48:56.528Z,17.90
2018-11-12T11:51:26.937Z,17.90
2018-11-12T11:53:58.603Z,17.70
2018-11-12T11:56:28.223Z,17.30
2018-11-12T11:58:57.797Z,17.30
2018-11-12T12:01:27.412Z,17.70
2018-11-12T12:04:00.769Z,18.30
2018-11-12T12:06:31.424Z,18.30
2018-11-12T12:09:01.251Z,18.10
2018-11-12T12:11:31.475Z,18.00
2018-11-12T12:14:01.201Z,17.70
2018-11-12T12:16:30.976Z,17.30
2018-11-12T12:19:00.847Z,17.70
2018-11-12T12:24:01.140Z,17.10
2018-11-12T12:26:30.773Z,17.20
2018-11-12T12:29:00.697Z,17.30
2018-11-12T12:31:30.587Z,17.70
2018-11-12T12:34:00.518Z,18.40
2018-11-12T12:36:30.347Z,18.60
2018-11-12T12:38:59.771Z,18.20
2018-11-12T12:41:29.385Z,17.60
2018-11-12T12:43:59.044Z,17.00
2018-11-12T12:46:28.585Z,16.60
2018-11-12T12:48:58.406Z,16.10
2018-11-12T12:51:28.081Z,15.60
2018-11-12T12:53:57.649Z,15.30
2018-11-12T12:56:27.699Z,15.20
2018-11-12T12:58:57.541Z,15.00
2018-11-12T13:01:27.071Z,15.10
2018-11-12T13:03:57.321Z,15.10
2018-11-12T13:06:26.994Z,15.30
2018-11-12T13:08:56.728Z,15.30
2018-11-12T13:11:26.387Z,15.30
2018-11-12T13:13:56.143Z,15.20
2018-11-12T13:16:25.791Z,15.00
2018-11-12T13:18:55.375Z,14.90
2018-11-12T13:21:24.992Z,14.80
2018-11-12T13:23:54.885Z,14.80
2018-11-12T13:26:24.379Z,14.90
2018-11-12T13:28:53.995Z,15.00
2018-11-12T13:31:23.786Z,15.30
2018-11-12T13:33:53.717Z,15.50
2018-11-12T13:36:23.483Z,15.60
2018-11-12T13:38:53.047Z,15.60
2018-11-12T13:41:23.004Z,15.30
2018-11-12T13:43:52.791Z,15.10
2018-11-12T13:46:26.347Z,14.90
2018-11-12T13:48:56.263Z,14.90
2018-11-12T13:51:25.721Z,14.90
2018-11-12T13:53:55.311Z,14.90
2018-11-12T13:56:25.119Z,14.90
2018-11-12T13:58:55.174Z,14.90
2018-11-12T14:01:24.952Z,14.90
2018-11-12T14:03:54.828Z,15.00
2018-11-12T14:06:24.666Z,15.00
2018-11-12T14:08:54.811Z,14.70
2018-11-12T14:11:24.714Z,14.40
2018-11-12T14:13:54.533Z,14.30
2018-11-12T14:16:24.205Z,14.20
2018-11-12T14:18:54.338Z,14.20
2018-11-12T14:21:24.039Z,14.20
2018-11-12T14:23:53.616Z,14.10
2018-11-12T14:26:23.375Z,14.00
2018-11-12T14:28:52.894Z,13.90
2018-11-12T14:31:22.593Z,14.00
2018-11-12T14:33:52.328Z,14.10
2018-11-12T14:36:21.890Z,14.20
2018-11-12T14:38:52.211Z,14.20
2018-11-12T14:41:24.191Z,14.10
2018-11-12T14:43:58.966Z,14.10
2018-11-12T14:46:28.722Z,14.00
2018-11-12T14:48:58.288Z,13.90
2018-11-12T14:51:27.965Z,13.80
2018-11-12T14:53:57.502Z,13.80
2018-11-12T14:56:27.196Z,13.80
2018-11-12T14:58:57.009Z,13.70
2018-11-12T15:01:26.544Z,13.70
2018-11-12T15:03:56.186Z,13.70
2018-11-12T15:06:25.780Z,13.70
2018-11-12T15:08:55.480Z,13.70
2018-11-12T15:11:25.351Z,13.90
2018-11-12T15:13:55.117Z,14.20
2018-11-12T15:16:25.231Z,14.50
2018-11-12T15:18:55.079Z,14.50
2018-11-12T15:21:24.574Z,14.60
2018-11-12T15:23:54.600Z,14.50
2018-11-12T15:26:24.512Z,14.30
2018-11-12T15:28:54.743Z,14.10
2018-11-12T15:31:24.250Z,13.80
2018-11-12T15:33:53.815Z,13.60
2018-11-12T15:36:23.420Z,13.40
2018-11-12T15:38:52.957Z,13.30
2018-11-12T15:41:22.693Z,13.20
2018-11-12T15:43:52.620Z,13.10
2018-11-12T15:46:22.287Z,13.00
2018-11-12T15:48:51.794Z,12.80
2018-11-12T15:51:21.744Z,12.70
2018-11-12T15:53:51.357Z,12.60
2018-11-12T15:56:21.002Z,12.50
2018-11-12T15:58:50.635Z,12.40
2018-11-12T16:01:20.167Z,12.40
2018-11-12T16:03:50.050Z,12.40
2018-11-12T16:06:19.830Z,12.30
2018-11-12T16:08:53.054Z,12.30
2018-11-12T16:11:22.926Z,12.20
2018-11-12T16:13:53.884Z,12.10
2018-11-12T16:16:23.637Z,12.00
2018-11-12T16:18:53.662Z,11.90
2018-11-12T16:21:23.436Z,11.80
2018-11-12T16:23:52.917Z,11.80
2018-11-12T16:26:22.494Z,11.70
2018-11-12T16:28:52.519Z,11.60
2018-11-12T16:31:22.410Z,11.60
2018-11-12T16:33:52.480Z,11.50
2018-11-12T16:36:22.427Z,11.40
2018-11-12T16:38:52.129Z,11.20
2018-11-12T16:41:22.193Z,11.30
2018-11-12T16:43:52.711Z,11.20
2018-11-12T16:46:22.854Z,11.10
2018-11-12T16:48:53.669Z,11.10
2018-11-12T16:51:23.542Z,11.00
2018-11-12T16:53:53.377Z,10.80
2018-11-12T16:56:23.035Z,10.60
2018-11-12T16:58:52.829Z,10.40
2018-11-12T17:01:22.692Z,10.30
2018-11-12T17:03:52.674Z,10.30
2018-11-12T17:06:22.457Z,10.20
2018-11-12T17:08:52.143Z,10.10
2018-11-12T17:11:21.698Z,10.00
2018-11-12T17:13:51.413Z,9.90
2018-11-12T17:16:21.368Z,9.90
2018-11-12T17:18:51.152Z,9.90
2018-11-12T17:21:20.634Z,9.80
2018-11-12T17:23:50.263Z,9.60
2018-11-12T17:26:19.754Z,9.50
2018-11-12T17:28:49.350Z,9.40
2018-11-12T17:31:19.294Z,9.40
2018-11-12T17:33:49.329Z,9.30
2018-11-12T17:36:19.187Z,9.20
2018-11-12T17:38:49.027Z,9.20
2018-11-12T17:41:18.749Z,9.20
2018-11-12T17:43:48.445Z,9.20
2018-11-12T17:46:18.010Z,9.10
2018-11-12T17:48:47.777Z,8.90
2018-11-12T17:51:17.338Z,8.80
2018-11-12T17:53:47.008Z,8.70
2018-11-12T17:56:16.877Z,8.50
2018-11-12T17:58:46.485Z,8.40
2018-11-12T18:01:16.101Z,8.50
2018-11-12T18:03:45.673Z,8.60
2018-11-12T18:06:15.358Z,8.60
2018-11-12T18:08:45.052Z,8.50
2018-11-12T18:11:14.569Z,8.40
2018-11-12T18:13:44.309Z,8.20
2018-11-12T18:16:14.291Z,8.20
2018-11-12T18:18:43.938Z,8.20
2018-11-12T18:21:13.668Z,8.20
2018-11-12T18:23:43.567Z,8.10
2018-11-12T18:26:13.183Z,8.00
2018-11-12T18:28:42.873Z,8.00
2018-11-12T18:31:13.236Z,7.90
2018-11-12T18:33:42.719Z,8.00
2018-11-12T18:36:12.269Z,8.00
2018-11-12T18:38:41.895Z,7.90
2018-11-12T18:41:11.439Z,7.90
2018-11-12T18:43:41.370Z,8.00
2018-11-12T18:46:11.034Z,8.00
2018-11-12T18:48:40.669Z,8.20
2018-11-12T18:51:10.844Z,8.10
2018-11-12T18:53:40.656Z,8.30
2018-11-12T18:56:10.471Z,8.30
2018-11-12T18:58:40.089Z,8.40
2018-11-12T19:01:09.710Z,8.50
2018-11-12T19:03:39.267Z,8.70
2018-11-12T19:06:08.990Z,8.90
2018-11-12T19:08:38.675Z,9.10
2018-11-12T19:11:08.662Z,9.20
2018-11-12T19:13:38.426Z,9.50
2018-11-12T19:16:08.414Z,9.60
2018-11-12T19:18:38.098Z,9.60
2018-11-12T19:21:08.167Z,9.70
2018-11-12T19:23:37.822Z,9.70
2018-11-12T19:26:07.573Z,9.70
2018-11-12T19:28:37.434Z,9.70
2018-11-12T19:31:07.605Z,9.60
2018-11-12T19:33:37.286Z,9.60
2018-11-12T19:36:07.516Z,9.60
2018-11-12T19:38:36.921Z,9.70
2018-11-12T19:41:07.026Z,9.70
2018-11-12T19:43:36.595Z,9.70
2018-11-12T19:46:06.632Z,9.70
2018-11-12T19:48:36.001Z,9.70
2018-11-12T19:51:05.486Z,9.60
2018-11-12T19:53:35.027Z,9.70
2018-11-12T19:56:04.774Z,9.60
2018-11-12T19:58:34.364Z,9.60
2018-11-12T20:01:03.932Z,9.50
2018-11-12T20:03:33.774Z,9.50
2018-11-12T20:06:03.562Z,9.50
2018-11-12T20:08:33.324Z,9.50
2018-11-12T20:11:03.002Z,9.40
2018-11-12T20:13:33.256Z,9.30
2018-11-12T20:16:04.067Z,9.20
2018-11-12T20:18:33.679Z,9.20
2018-11-12T20:21:03.365Z,9.20
2018-11-12T20:23:33.748Z,9.20
2018-11-12T20:26:03.312Z,9.20
2018-11-12T20:28:33.405Z,9.10
2018-11-12T20:31:03.336Z,9.10
2018-11-12T20:33:32.843Z,9.10
2018-11-12T20:36:02.400Z,9.00
2018-11-12T20:38:32.088Z,8.90
2018-11-12T20:41:01.885Z,8.90
2018-11-12T20:43:31.714Z,8.90
2018-11-12T20:46:01.662Z,8.90
2018-11-12T20:48:31.316Z,8.80
2018-11-12T20:51:01.021Z,8.70
2018-11-12T20:53:31.234Z,8.70
2018-11-12T20:56:00.913Z,8.70
2018-11-12T20:58:31.067Z,8.80
2018-11-12T21:01:01.062Z,8.70
2018-11-12T21:03:30.879Z,8.60
2018-11-12T21:06:00.638Z,8.50
2018-11-12T21:08:30.350Z,8.40
2018-11-12T21:11:00.069Z,8.40
2018-11-12T21:13:29.582Z,8.30
2018-11-12T21:15:59.339Z,8.30
2018-11-12T21:18:28.927Z,8.30
2018-11-12T21:20:58.731Z,8.20
2018-11-12T21:23:29.039Z,8.20
2018-11-12T21:25:59.264Z,8.20
2018-11-12T21:28:29.423Z,8.10
2018-11-12T21:30:59.121Z,8.20
2018-11-12T21:33:29.102Z,8.10
2018-11-12T21:35:59.113Z,8.00
2018-11-12T21:38:28.915Z,7.90
2018-11-12T21:40:58.775Z,7.90
2018-11-12T21:43:28.622Z,7.80
2018-11-12T21:45:58.273Z,7.70
2018-11-12T21:48:27.921Z,7.60
2018-11-12T21:50:57.432Z,7.50
2018-11-12T21:53:27.341Z,7.40
2018-11-12T21:55:57.065Z,7.50
2018-11-12T21:58:27.032Z,7.50
2018-11-12T22:00:56.805Z,7.50
2018-11-12T22:03:26.613Z,7.40
2018-11-12T22:05:56.925Z,7.20
2018-11-12T22:08:26.755Z,7.20
2018-11-12T22:10:56.517Z,7.10
2018-11-12T22:13:26.178Z,7.00
2018-11-12T22:15:56.224Z,7.10
2018-11-12T22:18:27.385Z,7.10
2018-11-12T22:20:58.626Z,7.00
2018-11-12T22:23:28.432Z,7.00
2018-11-12T22:25:58.268Z,7.00
2018-11-12T22:28:28.567Z,7.00
2018-11-12T22:30:58.325Z,7.00
2018-11-12T22:33:28.047Z,6.90
2018-11-12T22:35:57.842Z,6.80
2018-11-12T22:38:28.414Z,6.70
2018-11-12T22:40:58.332Z,6.60
2018-11-12T22:43:27.885Z,6.60
2018-11-12T22:45:57.494Z,6.60
2018-11-12T22:48:27.419Z,6.60
2018-11-12T22:50:57.645Z,6.60
2018-11-12T22:53:27.437Z,6.50
2018-11-12T22:55:57.211Z,6.50
2018-11-12T22:58:27.337Z,6.50
2018-11-12T23:00:57.621Z,6.50
2018-11-12T23:03:27.762Z,6.50
2018-11-12T23:06:02.385Z,6.50
2018-11-12T23:08:31.958Z,6.50
2018-11-12T23:11:01.572Z,6.50
2018-11-12T23:13:31.152Z,6.50
2018-11-12T23:16:00.781Z,6.50
2018-11-12T23:18:30.456Z,6.50
2018-11-12T23:21:00.230Z,6.50
2018-11-12T23:23:30.269Z,6.50
2018-11-12T23:26:01.261Z,6.50
2018-11-12T23:28:30.865Z,6.50
2018-11-12T23:31:00.548Z,6.70
2018-11-12T23:33:29.968Z,6.70
2018-11-12T23:35:59.741Z,6.80
2018-11-12T23:38:29.801Z,6.90
2018-11-12T23:40:59.461Z,6.80
2018-11-12T23:43:30.187Z,6.80
2018-11-12T23:45:59.981Z,6.90
2018-11-12T23:48:30.076Z,6.90
2018-11-12T23:50:59.767Z,7.00
2018-11-12T23:53:29.557Z,7.10
2018-11-12T23:55:59.870Z,7.10
2018-11-12T23:58:29.664Z,7.20
